Wetterdaten: Woche 03.09.18 - 09.09.18 (KW36)
Datum Zeit Temp. A. Feuchte A. Luftdruck Regen Wind Richtung Taupunkt Windchill Windben
03.09.2018 00:00 16,8 C 82 % 1016,0 hPa 0,0 l/m 0,2 km/h N 13,6 C 16,8 C 2,8 km/h
03.09.2018 01:00 16,9 C 82 % 1016,4 hPa 0,0 l/m 0,0 km/h N 13,7 C 16,9 C 1,6 km/h
03.09.2018 02:00 16,1 C 82 % 1016,6 hPa 0,3 l/m 0,0 km/h N 13,0 C 16,1 C 0,4 km/h
03.09.2018 03:00 15,8 C 82 % 1016,4 hPa 1,0 l/m 0,0 km/h N 12,6 C 15,8 C 0,0 km/h
03.09.2018 04:00 15,8 C 82 % 1015,3 hPa 0,0 l/m 0,3 km/h N 12,7 C 15,8 C 1,6 km/h
03.09.2018 05:00 16,0 C 82 % 1015,3 hPa 0,3 l/m 0,1 km/h N 12,9 C 16,0 C 1,2 km/h
03.09.2018 06:00 16,3 C 82 % 1015,3 hPa 0,0 l/m 0,0 km/h N 13,2 C 16,3 C 0,0 km/h
03.09.2018 07:00 16,7 C 82 % 1015,4 hPa 0,0 l/m 0,0 km/h N 13,6 C 16,7 C 0,4 km/h
03.09.2018 08:00 17,1 C 82 % 1015,0 hPa 0,0 l/m 0,1 km/h N 14,0 C 17,1 C 2,4 km/h
03.09.2018 09:00 17,7 C 82 % 1014,9 hPa 0,0 l/m 0,1 km/h N 14,5 C 17,7 C 2,4 km/h
03.09.2018 10:00 18,8 C 81 % 1014,7 hPa 0,0 l/m 0,0 km/h N 15,4 C 18,8 C 1,6 km/h
03.09.2018 11:00 18,9 C 81 % 1014,8 hPa 0,0 l/m 0,0 km/h N 15,5 C 18,9 C 0,0 km/h
03.09.2018 12:00 19,2 C 81 % 1014,3 hPa 0,0 l/m 0,0 km/h N 15,9 C 19,2 C 1,6 km/h
03.09.2018 13:00 19,9 C 80 % 1013,8 hPa 0,0 l/m 0,1 km/h N 16,3 C 19,9 C 2,0 km/h
03.09.2018 14:00 19,8 C 79 % 1013,4 hPa 3,6 l/m 0,4 km/h N 16,1 C 19,8 C 2,4 km/h
03.09.2018 15:00 19,5 C 80 % 1013,0 hPa 0,5 l/m 0,1 km/h N 16,0 C 19,5 C 2,4 km/h
03.09.2018 16:00 20,0 C 80 % 1012,6 hPa 0,0 l/m 1,2 km/h N 16,5 C 20,0 C 7,2 km/h
03.09.2018 17:00 19,5 C 80 % 1012,7 hPa 1,8 l/m 0,5 km/h N 15,9 C 19,5 C 5,6 km/h
03.09.2018 18:00 18,0 C 80 % 1012,6 hPa 0,3 l/m 0,6 km/h N 14,4 C 18,0 C 4,0 km/h
03.09.2018 19:00 17,3 C 80 % 1012,6 hPa 0,3 l/m 0,0 km/h N 13,8 C 17,3 C 1,2 km/h
03.09.2018 20:00 16,3 C 80 % 1012,9 hPa 0,0 l/m 0,3 km/h N 12,8 C 16,3 C 4,0 km/h
03.09.2018 21:00 16,1 C 81 % 1012,5 hPa 0,0 l/m 0,4 km/h N 12,8 C 16,1 C 4,0 km/h
03.09.2018 22:00 16,1 C 81 % 1012,4 hPa 0,0 l/m 0,4 km/h N 12,8 C 16,1 C 3,2 km/h
03.09.2018 23:00 15,8 C 81 % 1012,4 hPa 0,0 l/m 0,2 km/h N 12,6 C 15,8 C 2,0 km/h
04.09.2018 00:00 16,3 C 81 % 1012,2 hPa 0,0 l/m 0,5 km/h N 13,0 C 16,3 C 4,4 km/h
04.09.2018 01:00 16,2 C 81 % 1011,9 hPa 0,0 l/m 0,9 km/h N 13,0 C 16,2 C 6,8 km/h
04.09.2018 02:00 16,2 C 81 % 1011,8 hPa 0,0 l/m 1,6 km/h N 13,0 C 16,2 C 8,9 km/h
04.09.2018 03:00 16,4 C 81 % 1011,8 hPa 0,0 l/m 0,2 km/h N 13,1 C 16,4 C 2,4 km/h
04.09.2018 04:00 16,3 C 81 % 1011,4 hPa 0,0 l/m 1,6 km/h N 13,0 C 16,3 C 10,1 km/h
04.09.2018 05:00 16,6 C 80 % 1011,6 hPa 0,0 l/m 1,3 km/h N 13,2 C 16,6 C 8,8 km/h
04.09.2018 06:00 16,9 C 80 % 1011,8 hPa 0,0 l/m 3,5 km/h N 13,3 C 16,9 C 14,1 km/h
04.09.2018 07:00 17,4 C 79 % 1011,9 hPa 0,0 l/m 8,0 km/h N 13,8 C 16,6 C 20,9 km/h
04.09.2018 08:00 17,9 C 79 % 1011,6 hPa 0,0 l/m 8,7 km/h N 14,1 C 16,9 C 25,3 km/h
04.09.2018 09:00 18,9 C 77 % 1011,5 hPa 0,0 l/m 8,3 km/h N 14,8 C 18,1 C 22,9 km/h
04.09.2018 10:00 19,5 C 76 % 1011,6 hPa 0,0 l/m 7,2 km/h N 15,2 C 19,1 C 21,7 km/h
04.09.2018 11:00 20,1 C 76 % 1011,6 hPa 0,0 l/m 8,0 km/h N 15,7 C 19,5 C 22,1 km/h
04.09.2018 12:00 20,3 C 76 % 1011,5 hPa 0,0 l/m 9,6 km/h N 15,8 C 19,2 C 25,0 km/h
04.09.2018 13:00 20,3 C 77 % 1011,5 hPa 0,0 l/m 9,1 km/h N 16,0 C 19,2 C 23,3 km/h
04.09.2018 14:00 20,5 C 76 % 1011,4 hPa 0,0 l/m 8,3 km/h N 16,1 C 19,7 C 23,3 km/h
04.09.2018 15:00 21,1 C 76 % 1011,1 hPa 0,0 l/m 7,7 km/h N 16,7 C 20,5 C 27,4 km/h
04.09.2018 16:00 20,9 C 76 % 1011,3 hPa 0,0 l/m 6,8 km/h N 16,4 C 20,6 C 24,5 km/h
04.09.2018 17:00 20,3 C 77 % 1011,5 hPa 0,0 l/m 7,5 km/h N 16,1 C 19,7 C 24,1 km/h
04.09.2018 18:00 20,4 C 76 % 1011,6 hPa 0,0 l/m 8,6 km/h N 16,0 C 19,6 C 24,5 km/h
04.09.2018 19:00 19,9 C 78 % 1012,0 hPa 0,0 l/m 8,8 km/h N 15,8 C 18,9 C 24,1 km/h
04.09.2018 20:00 19,3 C 78 % 1012,6 hPa 0,0 l/m 8,7 km/h N 15,4 C 18,4 C 24,5 km/h
04.09.2018 21:00 18,7 C 79 % 1013,2 hPa 3,1 l/m 4,8 km/h N 14,9 C 18,7 C 19,3 km/h
04.09.2018 22:00 18,5 C 79 % 1013,1 hPa 0,0 l/m 6,2 km/h N 14,8 C 18,2 C 21,7 km/h
04.09.2018 23:00 18,9 C 79 % 1013,3 hPa 0,0 l/m 6,2 km/h N 15,2 C 18,8 C 17,7 km/h
05.09.2018 00:00 18,9 C 79 % 1013,3 hPa 0,0 l/m 5,5 km/h N 15,2 C 18,9 C 17,7 km/h
05.09.2018 01:00 19,1 C 79 % 1013,3 hPa 0,0 l/m 5,9 km/h N 15,3 C 19,0 C 17,3 km/h
05.09.2018 02:00 19,0 C 79 % 1013,7 hPa 0,0 l/m 6,3 km/h N 15,2 C 18,8 C 18,1 km/h
05.09.2018 03:00 18,8 C 79 % 1013,8 hPa 0,0 l/m 6,8 km/h N 15,1 C 18,6 C 18,5 km/h
05.09.2018 04:00 18,6 C 79 % 1013,7 hPa 0,0 l/m 4,9 km/h N 14,9 C 18,6 C 20,9 km/h
05.09.2018 05:00 18,6 C 78 % 1014,0 hPa 0,0 l/m 5,1 km/h N 14,6 C 18,6 C 22,1 km/h
05.09.2018 06:00 18,3 C 79 % 1014,6 hPa 0,0 l/m 3,0 km/h N 14,5 C 18,3 C 14,5 km/h
05.09.2018 07:00 18,4 C 78 % 1015,1 hPa 0,0 l/m 4,1 km/h N 14,5 C 18,4 C 19,3 km/h
05.09.2018 08:00 19,0 C 78 % 1015,5 hPa 0,0 l/m 5,0 km/h N 15,0 C 19,0 C 18,9 km/h
05.09.2018 09:00 20,2 C 75 % 1015,5 hPa 0,0 l/m 5,9 km/h N 15,7 C 20,1 C 17,3 km/h
05.09.2018 10:00 21,5 C 70 % 1015,5 hPa 0,0 l/m 6,4 km/h N 15,8 C 21,4 C 22,1 km/h
05.09.2018 11:00 22,4 C 68 % 1015,3 hPa 0,0 l/m 6,8 km/h N 16,2 C 22,2 C 20,9 km/h
05.09.2018 12:00 23,3 C 63 % 1014,9 hPa 0,0 l/m 5,4 km/h N 15,9 C 23,2 C 21,3 km/h
05.09.2018 13:00 23,6 C 60 % 1014,8 hPa 0,0 l/m 5,6 km/h N 15,3 C 23,6 C 19,3 km/h
05.09.2018 14:00 24,0 C 56 % 1014,3 hPa 0,0 l/m 7,0 km/h N 14,6 C 23,8 C 22,1 km/h
05.09.2018 15:00 24,4 C 52 % 1014,0 hPa 0,0 l/m 6,1 km/h N 13,9 C 24,3 C 18,9 km/h
05.09.2018 16:00 24,3 C 52 % 1013,8 hPa 0,0 l/m 3,5 km/h N 13,8 C 24,3 C 16,5 km/h
05.09.2018 17:00 24,2 C 52 % 1013,7 hPa 0,0 l/m 3,5 km/h N 13,8 C 24,2 C 12,1 km/h
05.09.2018 18:00 23,9 C 54 % 1013,6 hPa 0,0 l/m 1,3 km/h N 13,9 C 23,9 C 9,2 km/h
05.09.2018 19:00 22,7 C 59 % 1013,8 hPa 0,0 l/m 0,0 km/h N 14,3 C 22,7 C 0,8 km/h
05.09.2018 20:00 19,9 C 67 % 1014,2 hPa 0,0 l/m 0,0 km/h N 13,6 C 19,9 C 0,0 km/h
05.09.2018 21:00 18,0 C 75 % 1014,2 hPa 0,0 l/m 0,0 km/h N 13,3 C 18,0 C 1,6 km/h
05.09.2018 22:00 17,5 C 77 % 1014,2 hPa 0,0 l/m 0,3 km/h N 13,4 C 17,5 C 1,6 km/h
05.09.2018 23:00 16,3 C 79 % 1014,2 hPa 0,0 l/m 0,1 km/h N 12,6 C 16,3 C 2,0 km/h
06.09.2018 00:00 15,8 C 79 % 1014,2 hPa 0,0 l/m 0,1 km/h N 12,2 C 15,8 C 1,6 km/h
06.09.2018 01:00 15,5 C 79 % 1014,2 hPa 0,0 l/m 0,0 km/h N 11,9 C 15,5 C 1,2 km/h
06.09.2018 02:00 15,4 C 79 % 1014,0 hPa 0,0 l/m 0,1 km/h N 11,8 C 15,4 C 3,6 km/h
06.09.2018 03:00 15,0 C 80 % 1013,7 hPa 0,0 l/m 0,1 km/h N 11,5 C 15,0 C 1,6 km/h
06.09.2018 04:00 14,6 C 80 % 1013,5 hPa 0,0 l/m 0,0 km/h N 11,2 C 14,6 C 2,0 km/h
06.09.2018 05:00 14,1 C 80 % 1013,2 hPa 0,0 l/m 0,1 km/h N 10,6 C 14,1 C 1,6 km/h
06.09.2018 06:00 13,4 C 79 % 1013,5 hPa 0,0 l/m 0,0 km/h N 9,9 C 13,4 C 0,0 km/h
06.09.2018 07:00 13,7 C 80 % 1013,9 hPa 0,0 l/m 0,5 km/h N 10,2 C 13,7 C 2,0 km/h
06.09.2018 08:00 15,2 C 80 % 1013,7 hPa 0,0 l/m 0,0 km/h N 11,8 C 15,2 C 0,0 km/h
06.09.2018 09:00 17,9 C 78 % 1013,7 hPa 0,0 l/m 1,0 km/h N 14,1 C 17,9 C 7,2 km/h
06.09.2018 10:00 21,3 C 66 % 1013,4 hPa 0,0 l/m 2,1 km/h N 14,5 C 21,3 C 8,9 km/h
06.09.2018 11:00 22,7 C 60 % 1013,1 hPa 0,0 l/m 1,3 km/h N 14,4 C 22,7 C 8,1 km/h
06.09.2018 12:00 23,7 C 55 % 1012,5 hPa 0,0 l/m 1,9 km/h N 14,1 C 23,7 C 7,6 km/h
06.09.2018 13:00 24,1 C 55 % 1012,0 hPa 0,0 l/m 2,4 km/h N 14,6 C 24,1 C 10,5 km/h
06.09.2018 14:00 24,3 C 54 % 1011,5 hPa 0,0 l/m 2,2 km/h N 14,4 C 24,3 C 10,5 km/h
06.09.2018 15:00 24,2 C 55 % 1011,0 hPa 0,0 l/m 1,8 km/h N 14,6 C 24,2 C 9,6 km/h
06.09.2018 16:00 24,3 C 55 % 1010,4 hPa 0,0 l/m 2,0 km/h N 14,5 C 24,3 C 8,8 km/h
06.09.2018 17:00 23,7 C 56 % 1010,1 hPa 0,0 l/m 0,6 km/h N 14,4 C 23,7 C 6,8 km/h
06.09.2018 18:00 22,9 C 57 % 1009,9 hPa 0,0 l/m 0,2 km/h N 13,8 C 22,9 C 3,6 km/h
06.09.2018 19:00 21,4 C 62 % 1010,1 hPa 0,0 l/m 0,0 km/h N 13,7 C 21,4 C 0,4 km/h
06.09.2018 20:00 19,0 C 71 % 1010,3 hPa 0,0 l/m 0,0 km/h N 13,6 C 19,0 C 0,0 km/h
06.09.2018 21:00 17,5 C 76 % 1010,4 hPa 0,0 l/m 0,0 km/h N 13,2 C 17,5 C 0,8 km/h
06.09.2018 22:00 16,4 C 78 % 1010,4 hPa 0,0 l/m 0,0 km/h N 12,5 C 16,4 C 1,2 km/h
06.09.2018 23:00 15,6 C 79 % 1010,2 hPa 0,0 l/m 0,3 km/h N 11,9 C 15,6 C 2,4 km/h
07.09.2018 00:00 15,0 C 79 % 1009,9 hPa 0,0 l/m 0,2 km/h N 11,4 C 15,0 C 1,6 km/h
07.09.2018 01:00 14,3 C 79 % 1009,8 hPa 0,0 l/m 0,2 km/h N 10,7 C 14,3 C 1,2 km/h
07.09.2018 02:00 13,7 C 79 % 1009,7 hPa 0,0 l/m 0,0 km/h N 10,1 C 13,7 C 0,0 km/h
07.09.2018 03:00 13,5 C 79 % 1009,7 hPa 0,0 l/m 0,0 km/h N 9,9 C 13,5 C 0,4 km/h
07.09.2018 04:00 13,2 C 80 % 1009,7 hPa 0,0 l/m 0,0 km/h N 9,7 C 13,2 C 0,8 km/h
07.09.2018 05:00 13,0 C 80 % 1009,9 hPa 0,0 l/m 0,2 km/h N 9,6 C 13,0 C 1,6 km/h
07.09.2018 06:00 12,8 C 80 % 1010,3 hPa 0,0 l/m 0,0 km/h N 9,4 C 12,8 C 0,0 km/h
07.09.2018 07:00 13,8 C 81 % 1010,8 hPa 0,0 l/m 0,3 km/h N 10,6 C 13,8 C 3,2 km/h
07.09.2018 08:00 15,4 C 80 % 1011,3 hPa 0,0 l/m 0,9 km/h N 11,9 C 15,4 C 6,4 km/h
07.09.2018 09:00 17,8 C 79 % 1011,7 hPa 0,0 l/m 0,8 km/h N 14,0 C 17,8 C 3,6 km/h
07.09.2018 10:00 21,0 C 72 % 1011,6 hPa 0,0 l/m 3,5 km/h N 15,8 C 21,0 C 9,6 km/h
07.09.2018 11:00 22,8 C 67 % 1011,6 hPa 0,0 l/m 4,4 km/h N 16,2 C 22,8 C 13,7 km/h
07.09.2018 12:00 22,9 C 64 % 1011,6 hPa 0,0 l/m 6,0 km/h N 15,7 C 22,9 C 18,1 km/h
07.09.2018 13:00 23,0 C 65 % 1011,8 hPa 0,0 l/m 4,3 km/h N 16,1 C 23,0 C 13,7 km/h
07.09.2018 14:00 23,6 C 61 % 1011,7 hPa 0,0 l/m 3,6 km/h N 15,6 C 23,6 C 10,9 km/h
07.09.2018 15:00 23,9 C 59 % 1011,5 hPa 0,0 l/m 4,7 km/h N 15,3 C 23,9 C 14,5 km/h
07.09.2018 16:00 23,5 C 62 % 1011,6 hPa 0,0 l/m 5,6 km/h N 15,9 C 23,5 C 16,5 km/h
07.09.2018 17:00 22,8 C 68 % 1011,9 hPa 0,0 l/m 4,6 km/h N 16,6 C 22,8 C 16,1 km/h
07.09.2018 18:00 22,3 C 68 % 1012,2 hPa 0,0 l/m 6,7 km/h N 16,0 C 22,0 C 19,3 km/h
07.09.2018 19:00 21,5 C 70 % 1012,7 hPa 0,0 l/m 4,8 km/h N 15,7 C 21,5 C 16,1 km/h
07.09.2018 20:00 20,7 C 71 % 1013,3 hPa 0,0 l/m 2,2 km/h N 15,2 C 20,7 C 13,3 km/h
07.09.2018 21:00 20,5 C 72 % 1013,8 hPa 0,0 l/m 2,3 km/h N 15,2 C 20,5 C 13,3 km/h
07.09.2018 22:00 20,8 C 72 % 1014,0 hPa 0,0 l/m 9,7 km/h N 15,4 C 19,6 C 26,1 km/h
07.09.2018 23:00 20,8 C 71 % 1014,3 hPa 0,0 l/m 8,1 km/h N 15,2 C 20,2 C 25,0 km/h
08.09.2018 00:00 20,7 C 71 % 1014,6 hPa 0,0 l/m 9,0 km/h N 15,1 C 19,8 C 24,6 km/h
08.09.2018 01:00 20,1 C 73 % 1015,2 hPa 0,0 l/m 5,6 km/h N 15,2 C 20,1 C 16,1 km/h
08.09.2018 02:00 19,7 C 75 % 1015,5 hPa 0,0 l/m 6,6 km/h N 15,1 C 19,5 C 18,5 km/h
08.09.2018 03:00 19,5 C 75 % 1015,7 hPa 0,0 l/m 5,8 km/h N 14,8 C 19,4 C 18,1 km/h
08.09.2018 04:00 19,3 C 75 % 1016,1 hPa 0,0 l/m 6,7 km/h N 14,7 C 18,8 C 20,1 km/h
08.09.2018 05:00 19,0 C 74 % 1016,3 hPa 0,0 l/m 9,5 km/h N 14,3 C 17,8 C 27,0 km/h
08.09.2018 06:00 18,6 C 74 % 1016,9 hPa 0,0 l/m 10,4 km/h N 13,8 C 17,0 C 25,4 km/h
08.09.2018 07:00 18,7 C 73 % 1017,6 hPa 0,0 l/m 9,4 km/h N 13,7 C 17,4 C 23,3 km/h
08.09.2018 08:00 19,0 C 73 % 1018,2 hPa 0,0 l/m 9,1 km/h N 14,0 C 17,9 C 26,2 km/h
08.09.2018 09:00 20,2 C 71 % 1018,7 hPa 0,0 l/m 8,7 km/h N 14,8 C 19,3 C 25,0 km/h
08.09.2018 10:00 20,9 C 69 % 1019,1 hPa 0,0 l/m 8,9 km/h N 15,0 C 20,0 C 23,3 km/h
08.09.2018 11:00 21,8 C 65 % 1019,0 hPa 0,0 l/m 8,1 km/h N 14,9 C 21,2 C 22,5 km/h
08.09.2018 12:00 22,4 C 61 % 1019,0 hPa 0,0 l/m 7,0 km/h N 14,4 C 22,2 C 20,9 km/h
08.09.2018 13:00 22,8 C 58 % 1018,9 hPa 0,0 l/m 5,9 km/h N 14,0 C 22,7 C 18,1 km/h
08.09.2018 14:00 22,7 C 58 % 1018,9 hPa 0,0 l/m 4,8 km/h N 13,9 C 22,7 C 18,1 km/h
08.09.2018 15:00 22,8 C 57 % 1018,7 hPa 0,0 l/m 5,4 km/h N 13,7 C 22,8 C 17,7 km/h
08.09.2018 16:00 22,9 C 57 % 1018,4 hPa 0,0 l/m 4,8 km/h N 13,8 C 22,9 C 16,1 km/h
08.09.2018 17:00 22,9 C 56 % 1018,4 hPa 0,0 l/m 3,1 km/h N 13,7 C 22,9 C 13,7 km/h
08.09.2018 18:00 22,6 C 56 % 1018,4 hPa 0,0 l/m 1,8 km/h N 13,5 C 22,6 C 8,4 km/h
08.09.2018 19:00 21,4 C 62 % 1018,5 hPa 0,0 l/m 0,0 km/h N 13,7 C 21,4 C 0,0 km/h
08.09.2018 20:00 18,7 C 70 % 1019,3 hPa 0,0 l/m 0,0 km/h N 13,1 C 18,7 C 0,0 km/h
08.09.2018 21:00 17,0 C 75 % 1019,8 hPa 0,0 l/m 0,0 km/h N 12,4 C 17,0 C 0,0 km/h
08.09.2018 22:00 16,1 C 77 % 1019,9 hPa 0,0 l/m 0,1 km/h N 12,1 C 16,1 C 2,8 km/h
08.09.2018 23:00 15,5 C 78 % 1019,8 hPa 0,0 l/m 0,0 km/h N 11,7 C 15,5 C 0,8 km/h
09.09.2018 00:00 15,1 C 79 % 1020,0 hPa 0,0 l/m 0,3 km/h N 11,5 C 15,1 C 3,2 km/h
09.09.2018 01:00 15,0 C 78 % 1020,2 hPa 0,0 l/m 0,4 km/h N 11,2 C 15,0 C 6,0 km/h
09.09.2018 02:00 14,8 C 78 % 1020,4 hPa 0,0 l/m 0,5 km/h N 11,0 C 14,8 C 4,0 km/h
09.09.2018 03:00 14,1 C 79 % 1020,3 hPa 0,0 l/m 0,2 km/h N 10,5 C 14,1 C 1,2 km/h
09.09.2018 04:00 13,9 C 80 % 1020,5 hPa 0,0 l/m 0,2 km/h N 10,5 C 13,9 C 2,8 km/h
09.09.2018 05:00 13,4 C 80 % 1020,6 hPa 0,0 l/m 0,1 km/h N 10,0 C 13,4 C 2,0 km/h
09.09.2018 06:00 12,8 C 80 % 1020,9 hPa 0,0 l/m 0,0 km/h N 9,4 C 12,8 C 0,0 km/h
09.09.2018 07:00 12,9 C 80 % 1021,3 hPa 0,0 l/m 0,0 km/h N 9,5 C 12,9 C 0,0 km/h
09.09.2018 08:00 14,2 C 80 % 1021,6 hPa 0,0 l/m 0,0 km/h N 10,7 C 14,2 C 0,4 km/h
09.09.2018 09:00 16,7 C 79 % 1021,7 hPa 0,0 l/m 0,1 km/h N 12,9 C 16,7 C 2,0 km/h
09.09.2018 10:00 20,9 C 68 % 1021,7 hPa 0,0 l/m 1,5 km/h N 14,7 C 20,9 C 7,2 km/h
09.09.2018 11:00 22,6 C 61 % 1021,5 hPa 0,0 l/m 1,5 km/h N 14,7 C 22,6 C 7,2 km/h
09.09.2018 12:00 23,7 C 55 % 1020,9 hPa 0,0 l/m 1,3 km/h N 14,0 C 23,7 C 8,9 km/h
09.09.2018 13:00 24,0 C 51 % 1020,9 hPa 0,0 l/m 2,6 km/h N 13,3 C 24,0 C 9,3 km/h
09.09.2018 14:00 23,9 C 51 % 1020,7 hPa 0,0 l/m 3,1 km/h N 13,0 C 23,9 C 9,1 km/h
09.09.2018 15:00 24,1 C 50 % 1020,3 hPa 0,0 l/m 3,2 km/h N 12,9 C 24,1 C 15,3 km/h
09.09.2018 16:00 23,8 C 52 % 1020,2 hPa 0,0 l/m 2,4 km/h N 13,4 C 23,8 C 10,5 km/h
09.09.2018 17:00 23,8 C 50 % 1020,3 hPa 0,0 l/m 2,4 km/h N 12,7 C 23,8 C 13,7 km/h
09.09.2018 18:00 23,2 C 53 % 1020,3 hPa 0,0 l/m 1,6 km/h N 12,9 C 23,2 C 10,4 km/h
09.09.2018 19:00 22,2 C 55 % 1020,5 hPa 0,0 l/m 0,0 km/h N 12,7 C 22,2 C 4,8 km/h
09.09.2018 20:00 19,9 C 64 % 1020,8 hPa 0,0 l/m 0,0 km/h N 12,9 C 19,9 C 0,8 km/h
09.09.2018 21:00 17,7 C 72 % 1021,0 hPa 0,0 l/m 0,0 km/h N 12,4 C 17,7 C 3,2 km/h
09.09.2018 22:00 16,5 C 76 % 1021,0 hPa 0,0 l/m 0,0 km/h N 12,2 C 16,5 C 0,0 km/h
09.09.2018 23:00 16,3 C 77 % 1021,0 hPa 0,0 l/m 0,0 km/h N 12,2 C 16,3 C 1,6 km/h
Min-Datum _ 09.09.18 09.09.18 07.09.18 - 03.09.18 - 09.09.18 09.09.18 03.09.18
_ Min-Zeit 06:45 15:00 02:30 - 00:00 - 06:45 06:45 00:00
Minimum _ 12,6 C 48 % 1009,6 hPa - 0,0 km/h - 9,2 C 12,6 C 0,0 km/h
Max-Datum _ 05.09.18 03.09.18 09.09.18 03.09.18 04.09.18 - 07.09.18 05.09.18 04.09.18
_ Max-Zeit 15:30 00:30 09:00 14:30 12:30 - 17:15 15:30 08:00
Maximum _ 24,7 C 82 % 1021,8 hPa 3,6 l/m 13,9 km/h
N
- 16,8 C 24,7 C 32,2 km/h
N
Durchschnitt _ 19,0 C 72 % 1014,7 hPa #11,2 l/m 2,9 km/h N 13,7 C 18,9 C 10,2 km/h